createdAt,value
2022-08-24T00:02:01.424Z,54.99
2022-08-24T00:04:28.285Z,55.22
2022-08-24T00:06:58.382Z,54.92
2022-08-24T00:09:24.973Z,54.70
2022-08-24T00:11:51.495Z,54.69
2022-08-24T00:14:18.733Z,54.56
2022-08-24T00:16:45.660Z,54.34
2022-08-24T00:19:12.269Z,54.00
2022-08-24T00:21:38.705Z,54.65
2022-08-24T00:24:05.700Z,54.61
2022-08-24T00:26:32.373Z,54.71
2022-08-24T00:29:01.327Z,54.81
2022-08-24T00:31:29.692Z,54.59
2022-08-24T00:33:56.389Z,54.30
2022-08-24T00:36:24.270Z,54.49
2022-08-24T00:38:51.142Z,54.60
2022-08-24T00:41:18.277Z,54.51
2022-08-24T00:44:11.746Z,55.25
2022-08-24T00:47:11.287Z,55.87
2022-08-24T00:49:49.647Z,56.28
2022-08-24T00:52:21.349Z,57.95
2022-08-24T00:55:05.863Z,58.43
2022-08-24T00:57:38.878Z,58.20
2022-08-24T01:00:14.861Z,57.83
2022-08-24T01:02:46.447Z,58.71
2022-08-24T01:05:15.479Z,58.67
2022-08-24T01:07:42.134Z,58.15
2022-08-24T01:10:16.203Z,58.69
2022-08-24T01:12:52.274Z,58.31
2022-08-24T01:15:29.576Z,59.02
2022-08-24T01:18:15.626Z,59.75
2022-08-24T01:20:45.787Z,59.70
2022-08-24T01:23:51.112Z,58.75
2022-08-24T01:26:40.073Z,58.91
2022-08-24T01:29:11.940Z,58.86
2022-08-24T01:31:39.554Z,59.02
2022-08-24T01:34:06.453Z,58.60
2022-08-24T01:36:51.868Z,59.16
2022-08-24T01:39:26.748Z,59.02
2022-08-24T01:41:53.930Z,58.77
2022-08-24T01:44:22.511Z,58.51
2022-08-24T01:46:53.513Z,58.84
2022-08-24T01:49:22.434Z,58.87
2022-08-24T01:51:49.358Z,58.74
2022-08-24T01:54:16.599Z,59.07
2022-08-24T01:56:43.946Z,58.80
2022-08-24T01:59:12.552Z,59.15
2022-08-24T02:01:44.761Z,58.88
2022-08-24T02:04:11.416Z,58.64
2022-08-24T02:06:45.992Z,58.69
2022-08-24T02:09:13.998Z,59.16
2022-08-24T02:11:41.750Z,60.26
2022-08-24T02:14:11.544Z,60.04
2022-08-24T02:16:41.263Z,59.21
2022-08-24T02:19:08.584Z,58.99
2022-08-24T02:25:24.098Z,58.23
2022-08-24T02:27:50.725Z,58.75
2022-08-24T02:30:17.873Z,59.14
2022-08-24T02:32:44.363Z,58.88
2022-08-24T02:35:11.658Z,59.65
2022-08-24T02:37:43.864Z,59.54
2022-08-24T02:40:13.208Z,59.35
2022-08-24T02:42:41.056Z,59.70
2022-08-24T02:45:09.238Z,59.93
2022-08-24T02:47:38.024Z,59.54
2022-08-24T02:50:08.478Z,60.62
2022-08-24T02:52:37.526Z,60.29
2022-08-24T02:55:04.974Z,60.61
2022-08-24T02:57:31.807Z,60.39
2022-08-24T02:59:58.929Z,60.23
2022-08-24T03:02:26.893Z,60.58
2022-08-24T03:04:54.048Z,60.26
2022-08-24T03:07:20.521Z,60.19
2022-08-24T03:09:47.066Z,60.12
2022-08-24T03:12:13.627Z,61.05
2022-08-24T03:14:41.508Z,61.29
2022-08-24T03:17:08.063Z,61.76
2022-08-24T03:19:34.562Z,62.61
2022-08-24T03:22:01.138Z,63.06
2022-08-24T03:24:27.626Z,62.59
2022-08-24T03:26:54.736Z,62.88
2022-08-24T03:29:21.721Z,63.33
2022-08-24T03:31:50.615Z,63.81
2022-08-24T03:34:17.413Z,63.36
2022-08-24T03:36:47.234Z,63.10
2022-08-24T03:39:15.830Z,63.52
2022-08-24T03:41:42.489Z,62.59
2022-08-24T03:44:09.225Z,62.19
2022-08-24T03:46:38.163Z,61.34
2022-08-24T03:49:08.697Z,61.47
2022-08-24T03:51:36.923Z,61.56
2022-08-24T03:54:07.894Z,61.25
2022-08-24T03:56:35.292Z,62.50
2022-08-24T03:59:02.542Z,63.98
2022-08-24T04:01:34.200Z,64.73
2022-08-24T04:04:00.911Z,63.96
2022-08-24T04:06:31.295Z,63.21
2022-08-24T04:08:58.577Z,63.03
2022-08-24T04:11:27.736Z,62.59
2022-08-24T04:13:59.305Z,62.29
2022-08-24T04:16:26.999Z,61.96
2022-08-24T04:19:04.114Z,62.12
2022-08-24T04:21:35.385Z,61.87
2022-08-24T04:24:05.728Z,62.86
2022-08-24T04:26:44.165Z,62.70
2022-08-24T04:29:15.135Z,62.80
2022-08-24T04:31:47.435Z,63.15
2022-08-24T04:34:15.985Z,62.99
2022-08-24T04:36:44.745Z,63.59
2022-08-24T04:39:11.715Z,63.10
2022-08-24T04:42:06.269Z,63.51
2022-08-24T04:44:37.375Z,63.06
2022-08-24T04:47:04.303Z,62.88
2022-08-24T04:49:32.681Z,63.83
2022-08-24T04:51:59.161Z,64.13
2022-08-24T04:54:27.318Z,63.54
2022-08-24T04:57:08.379Z,64.27
2022-08-24T04:59:35.870Z,64.98
2022-08-24T05:02:02.466Z,65.97
2022-08-24T05:04:29.146Z,66.01
2022-08-24T05:06:57.900Z,66.20
2022-08-24T05:09:24.416Z,66.52
2022-08-24T05:11:51.154Z,66.16
2022-08-24T05:14:25.662Z,65.27
2022-08-24T05:16:55.369Z,65.22
2022-08-24T05:19:23.678Z,64.70
2022-08-24T05:21:51.466Z,64.26
2022-08-24T05:24:19.419Z,63.93
2022-08-24T05:26:46.222Z,63.64
2022-08-24T05:29:12.731Z,63.79
2022-08-24T05:31:46.004Z,63.98
2022-08-24T05:34:14.559Z,64.13
2022-08-24T05:36:42.494Z,63.95
2022-08-24T05:39:15.720Z,64.16
2022-08-24T05:41:50.735Z,62.80
2022-08-24T05:44:26.857Z,62.62
2022-08-24T05:46:58.148Z,62.85
2022-08-24T05:49:25.951Z,65.21
2022-08-24T05:51:53.374Z,63.49
2022-08-24T05:54:20.177Z,63.90
2022-08-24T05:56:54.683Z,61.05
2022-08-24T05:59:22.629Z,58.67
2022-08-24T06:01:49.719Z,56.98
2022-08-24T06:04:17.512Z,55.66
2022-08-24T06:06:43.981Z,54.37
2022-08-24T06:09:15.615Z,53.98
2022-08-24T06:11:42.510Z,52.68
2022-08-24T06:14:13.473Z,51.42
2022-08-24T06:16:50.304Z,50.51
2022-08-24T06:19:18.986Z,50.00
2022-08-24T06:21:48.378Z,49.40
2022-08-24T06:24:15.986Z,47.62
2022-08-24T06:27:03.894Z,46.93
2022-08-24T06:29:33.550Z,46.72
2022-08-24T06:32:13.896Z,46.45
2022-08-24T06:34:41.323Z,45.65
2022-08-24T06:37:07.851Z,45.69
2022-08-24T06:39:34.807Z,45.49
2022-08-24T06:42:02.146Z,45.38
2022-08-24T06:44:31.047Z,44.80
2022-08-24T06:47:11.306Z,44.94
2022-08-24T06:49:39.149Z,45.26
2022-08-24T06:52:05.896Z,45.14
2022-08-24T06:54:32.950Z,44.91
2022-08-24T06:57:01.738Z,45.01
2022-08-24T06:59:29.824Z,44.49
2022-08-24T07:01:58.117Z,43.93
2022-08-24T07:04:28.335Z,43.15
2022-08-24T07:07:13.833Z,43.08
2022-08-24T07:09:42.571Z,42.31
2022-08-24T07:12:09.112Z,41.88
2022-08-24T07:14:36.849Z,41.50
2022-08-24T07:17:03.321Z,41.05
2022-08-24T07:19:31.377Z,40.95
2022-08-24T07:21:58.855Z,40.25
2022-08-24T07:24:26.740Z,40.22
2022-08-24T07:26:54.250Z,40.28
2022-08-24T07:32:10.172Z,38.45
2022-08-24T07:34:39.888Z,37.92
2022-08-24T07:37:07.796Z,37.63
2022-08-24T07:39:36.535Z,37.48
2022-08-24T07:42:25.565Z,37.23
2022-08-24T07:44:51.682Z,36.59
2022-08-24T07:47:37.674Z,36.39
2022-08-24T07:50:13.152Z,34.34
2022-08-24T07:52:39.974Z,34.46
2022-08-24T07:55:07.106Z,34.26
2022-08-24T07:57:35.079Z,32.49
2022-08-24T08:00:04.981Z,33.32
2022-08-24T08:02:42.948Z,32.09
2022-08-24T08:05:10.375Z,32.80
2022-08-24T08:07:45.675Z,31.81
2022-08-24T08:10:13.542Z,31.06
2022-08-24T08:12:40.741Z,31.09
2022-08-24T08:15:09.429Z,31.05
2022-08-24T08:17:39.324Z,31.07
2022-08-24T08:20:09.384Z,30.63
2022-08-24T08:22:55.030Z,30.86
2022-08-24T08:25:55.202Z,30.42
2022-08-24T08:28:37.080Z,30.71
2022-08-24T08:31:05.872Z,29.97
2022-08-24T08:33:35.877Z,30.17
2022-08-24T08:36:09.407Z,29.96
2022-08-24T08:38:40.899Z,30.67
2022-08-24T08:41:17.756Z,29.57
2022-08-24T08:44:26.831Z,29.98
2022-08-24T08:47:14.256Z,29.40
2022-08-24T08:49:59.846Z,29.77
2022-08-24T08:52:48.403Z,29.06
2022-08-24T08:55:33.358Z,29.06
2022-08-24T08:58:26.568Z,29.08
2022-08-24T09:01:06.399Z,29.51
2022-08-24T09:04:09.466Z,28.74
2022-08-24T09:06:52.110Z,28.41
2022-08-24T09:09:47.405Z,28.05
2022-08-24T09:12:31.407Z,28.07
2022-08-24T09:15:14.480Z,28.39
2022-08-24T09:18:13.669Z,28.13
2022-08-24T09:21:08.201Z,28.68
2022-08-24T09:24:11.545Z,28.00
2022-08-24T09:26:49.272Z,28.03
2022-08-24T09:29:18.804Z,27.83
2022-08-24T09:32:18.213Z,27.67
2022-08-24T09:35:21.874Z,27.39
2022-08-24T09:38:05.236Z,27.31
2022-08-24T09:40:37.425Z,26.98
2022-08-24T09:43:12.284Z,26.56
2022-08-24T09:45:59.974Z,26.09
2022-08-24T09:49:04.186Z,26.56
2022-08-24T09:51:53.513Z,25.99
2022-08-24T09:54:57.569Z,25.97
2022-08-24T09:58:00.534Z,25.75
2022-08-24T10:00:34.718Z,25.55
2022-08-24T10:03:38.862Z,25.53
2022-08-24T10:06:24.200Z,24.85
2022-08-24T10:08:59.767Z,25.46
2022-08-24T10:11:42.606Z,24.64
2022-08-24T10:14:19.064Z,25.23
2022-08-24T10:17:03.777Z,25.20
2022-08-24T10:20:02.235Z,24.31
2022-08-24T10:23:01.205Z,25.34
2022-08-24T10:25:37.672Z,26.56
2022-08-24T10:28:22.445Z,26.26
2022-08-24T10:30:54.927Z,26.93
2022-08-24T10:33:26.693Z,26.93
2022-08-24T10:36:30.824Z,26.24
2022-08-24T10:39:42.145Z,26.43
2022-08-24T10:43:02.272Z,26.41
2022-08-24T10:46:06.099Z,25.46
2022-08-24T10:48:51.850Z,25.91
2022-08-24T10:51:40.026Z,25.49
2022-08-24T10:54:10.671Z,26.24
2022-08-24T10:56:55.198Z,25.70
2022-08-24T10:59:36.755Z,26.20
2022-08-24T11:02:12.299Z,25.51
2022-08-24T11:04:40.231Z,25.92
2022-08-24T11:07:19.814Z,25.91
2022-08-24T11:09:59.883Z,25.50
2022-08-24T11:12:43.116Z,25.58
2022-08-24T11:15:18.606Z,25.30
2022-08-24T11:18:00.764Z,25.77
2022-08-24T11:20:40.061Z,25.68
2022-08-24T11:23:16.539Z,26.06
2022-08-24T11:25:57.026Z,25.56
2022-08-24T11:28:32.289Z,26.55
2022-08-24T11:31:00.036Z,26.31
2022-08-24T11:33:34.447Z,26.33
2022-08-24T11:36:02.649Z,26.65
2022-08-24T11:38:32.421Z,26.41
2022-08-24T11:41:19.222Z,26.69
2022-08-24T11:44:09.486Z,27.23
2022-08-24T11:46:53.519Z,26.58
2022-08-24T11:49:46.985Z,26.67
2022-08-24T11:52:32.419Z,26.33
2022-08-24T11:55:08.065Z,27.17
2022-08-24T11:57:47.460Z,26.36
2022-08-24T12:00:23.454Z,26.66
2022-08-24T12:03:09.044Z,26.51
2022-08-24T12:05:51.647Z,26.70
2022-08-24T12:08:46.024Z,26.65
2022-08-24T12:11:18.390Z,26.76
2022-08-24T12:13:56.945Z,27.25
2022-08-24T12:16:35.914Z,26.61
2022-08-24T12:19:20.961Z,26.81
2022-08-24T12:21:52.674Z,27.17
2022-08-24T12:24:51.792Z,26.68
2022-08-24T12:27:23.394Z,27.65
2022-08-24T12:30:08.606Z,27.96
2022-08-24T12:32:51.171Z,27.78
2022-08-24T12:35:32.356Z,28.10
2022-08-24T12:38:08.240Z,27.60
2022-08-24T12:40:49.321Z,28.16
2022-08-24T12:43:29.848Z,27.04
2022-08-24T12:46:01.208Z,27.65
2022-08-24T12:48:39.118Z,28.09
2022-08-24T12:51:26.421Z,27.42
2022-08-24T12:54:44.458Z,28.33
2022-08-24T12:57:27.461Z,28.30
2022-08-24T13:00:07.053Z,27.71
2022-08-24T13:02:48.274Z,27.48
2022-08-24T13:05:20.706Z,27.61
2022-08-24T13:07:50.511Z,27.42
2022-08-24T13:10:25.718Z,27.75
2022-08-24T13:13:10.948Z,27.51
2022-08-24T13:15:37.561Z,28.08
2022-08-24T13:18:07.070Z,27.90
2022-08-24T13:20:36.504Z,28.39
2022-08-24T13:23:05.924Z,28.52
2022-08-24T13:25:47.649Z,28.57
2022-08-24T13:28:20.366Z,28.09
2022-08-24T13:31:16.595Z,27.39
2022-08-24T13:33:54.385Z,27.45
2022-08-24T13:36:39.010Z,27.64
2022-08-24T13:39:20.581Z,27.62
2022-08-24T13:42:18.769Z,28.04
2022-08-24T13:44:50.920Z,28.13
2022-08-24T13:47:52.525Z,27.77
2022-08-24T13:50:37.918Z,28.32
2022-08-24T13:53:29.862Z,28.08
2022-08-24T13:56:32.550Z,27.85
2022-08-24T13:59:22.478Z,28.15
2022-08-24T14:02:02.707Z,27.99
2022-08-24T14:04:40.132Z,28.00
2022-08-24T14:07:26.897Z,28.22
2022-08-24T14:10:21.077Z,27.79
2022-08-24T14:13:05.879Z,28.54
2022-08-24T14:16:17.416Z,28.43
2022-08-24T14:19:22.626Z,28.47
2022-08-24T14:21:56.941Z,28.31
2022-08-24T14:24:45.886Z,28.77
2022-08-24T14:27:43.046Z,29.31
2022-08-24T14:30:18.494Z,29.45
2022-08-24T14:33:27.222Z,29.56
2022-08-24T14:36:20.696Z,29.76
2022-08-24T14:38:55.696Z,29.74
2022-08-24T14:41:46.628Z,28.97
2022-08-24T14:44:19.833Z,28.09
2022-08-24T14:47:06.651Z,27.91
2022-08-24T14:49:47.875Z,28.13
2022-08-24T14:53:01.822Z,28.23
2022-08-24T14:55:37.081Z,27.53
2022-08-24T14:58:40.435Z,28.06
2022-08-24T15:01:09.979Z,27.18
2022-08-24T15:04:03.790Z,27.30
2022-08-24T15:06:39.230Z,26.90
2022-08-24T15:09:10.318Z,26.60
2022-08-24T15:11:39.452Z,27.00
2022-08-24T15:14:11.791Z,26.85
2022-08-24T15:16:59.290Z,26.50
2022-08-24T15:19:41.500Z,26.37
2022-08-24T15:22:14.902Z,26.29
2022-08-24T15:24:54.936Z,26.22
2022-08-24T15:27:32.918Z,26.88
2022-08-24T15:30:01.903Z,26.11
2022-08-24T15:32:44.854Z,26.54
2022-08-24T15:35:28.811Z,26.71
2022-08-24T15:37:56.401Z,26.47
2022-08-24T15:40:31.469Z,26.61
2022-08-24T15:43:04.225Z,26.85
2022-08-24T15:45:32.789Z,26.24
2022-08-24T15:48:01.561Z,25.99
2022-08-24T15:50:33.321Z,26.13
2022-08-24T15:53:07.103Z,25.95
2022-08-24T15:55:37.875Z,26.18
2022-08-24T15:58:16.649Z,26.50
2022-08-24T16:01:01.766Z,26.33
2022-08-24T16:03:46.718Z,26.07
2022-08-24T16:06:20.044Z,26.21
2022-08-24T16:09:01.555Z,26.43
2022-08-24T16:11:40.851Z,26.55
2022-08-24T16:14:31.558Z,26.60
2022-08-24T16:17:01.570Z,26.57
2022-08-24T16:19:33.643Z,26.29
2022-08-24T16:22:03.949Z,26.46
2022-08-24T16:24:35.900Z,26.59
2022-08-24T16:27:10.074Z,26.72
2022-08-24T16:29:36.443Z,26.61
2022-08-24T16:32:21.732Z,27.11
2022-08-24T16:35:09.137Z,26.69
2022-08-24T16:37:36.153Z,27.06
2022-08-24T16:40:04.442Z,26.90
2022-08-24T16:42:31.483Z,26.99
2022-08-24T16:44:59.108Z,27.68
2022-08-24T16:47:27.806Z,27.40
2022-08-24T16:49:54.643Z,27.62
2022-08-24T16:52:21.602Z,27.53
2022-08-24T16:54:49.156Z,27.66
2022-08-24T16:57:21.589Z,28.14
2022-08-24T16:59:49.883Z,27.95
2022-08-24T17:02:18.718Z,27.90
2022-08-24T17:04:45.726Z,28.11
2022-08-24T17:07:16.911Z,28.25
2022-08-24T17:09:45.862Z,28.16
2022-08-24T17:12:13.332Z,28.42
2022-08-24T17:14:40.045Z,28.01
2022-08-24T17:17:13.410Z,28.09
2022-08-24T17:19:40.768Z,27.89
2022-08-24T17:22:14.270Z,28.21
2022-08-24T17:24:43.371Z,27.73
2022-08-24T17:27:09.869Z,27.85
2022-08-24T17:29:36.461Z,28.00
2022-08-24T17:32:03.323Z,27.79
2022-08-24T17:34:30.060Z,28.28
2022-08-24T17:36:57.622Z,28.86
2022-08-24T17:39:24.447Z,28.60
2022-08-24T17:41:52.722Z,28.69
2022-08-24T17:44:24.946Z,28.29
2022-08-24T17:46:54.252Z,28.69
2022-08-24T17:49:21.580Z,28.67
2022-08-24T17:51:49.568Z,28.70
2022-08-24T17:54:17.919Z,28.75
2022-08-24T17:56:48.531Z,28.64
2022-08-24T17:59:25.405Z,28.82
2022-08-24T18:02:01.773Z,28.80
2022-08-24T18:04:30.238Z,28.85
2022-08-24T18:06:58.580Z,28.98
2022-08-24T18:09:30.128Z,29.38
2022-08-24T18:12:00.442Z,29.09
2022-08-24T18:14:28.044Z,29.11
2022-08-24T18:16:57.308Z,29.82
2022-08-24T18:19:25.425Z,29.44
2022-08-24T18:21:51.914Z,29.23
2022-08-24T18:24:18.844Z,29.58
2022-08-24T18:26:47.685Z,29.48
2022-08-24T18:29:21.203Z,29.35
2022-08-24T18:31:48.165Z,29.72
2022-08-24T18:34:21.903Z,29.76
2022-08-24T18:36:49.049Z,29.61
2022-08-24T18:39:15.555Z,29.69
2022-08-24T18:41:44.410Z,29.90
2022-08-24T18:44:22.228Z,30.21
2022-08-24T18:46:48.961Z,30.81
2022-08-24T18:49:19.900Z,31.23
2022-08-24T18:51:50.254Z,31.12
2022-08-24T18:54:27.066Z,31.04
2022-08-24T18:56:53.530Z,30.95
2022-08-24T18:59:21.828Z,31.44
2022-08-24T19:02:09.144Z,31.36
2022-08-24T19:04:44.882Z,31.25
2022-08-24T19:07:11.761Z,31.34
2022-08-24T19:09:38.328Z,31.15
2022-08-24T19:12:06.255Z,31.34
2022-08-24T19:14:33.991Z,33.13
2022-08-24T19:17:00.673Z,33.67
2022-08-24T19:19:27.334Z,34.06
2022-08-24T19:21:54.530Z,33.82
2022-08-24T19:24:25.017Z,34.12
2022-08-24T19:26:51.926Z,34.09
2022-08-24T19:29:38.923Z,34.02
2022-08-24T19:32:09.945Z,34.22
2022-08-24T19:34:40.570Z,34.49
2022-08-24T19:37:09.779Z,34.55
2022-08-24T19:39:36.254Z,34.88
2022-08-24T19:42:03.868Z,35.33
2022-08-24T19:44:52.007Z,35.54
2022-08-24T19:47:18.835Z,35.84
2022-08-24T19:49:45.710Z,36.35
2022-08-24T19:52:13.487Z,36.20
2022-08-24T19:54:44.862Z,36.44
2022-08-24T19:57:36.871Z,37.23
2022-08-24T20:00:18.617Z,37.63
2022-08-24T20:02:50.667Z,38.16
2022-08-24T20:05:18.947Z,38.05
2022-08-24T20:07:46.366Z,38.90
2022-08-24T20:10:14.952Z,38.37
2022-08-24T20:12:41.911Z,39.56
2022-08-24T20:15:09.427Z,40.10
2022-08-24T20:17:36.612Z,40.31
2022-08-24T20:20:05.874Z,39.33
2022-08-24T20:22:33.077Z,39.96
2022-08-24T20:24:59.504Z,40.00
2022-08-24T20:27:27.809Z,40.21
2022-08-24T20:29:55.474Z,39.34
2022-08-24T20:32:22.770Z,40.19
2022-08-24T20:34:49.786Z,40.32
2022-08-24T20:37:21.889Z,41.30
2022-08-24T20:39:48.557Z,41.89
2022-08-24T20:42:21.129Z,41.36
2022-08-24T20:44:48.254Z,42.25
2022-08-24T20:47:15.873Z,41.09
2022-08-24T20:49:43.679Z,41.94
2022-08-24T20:52:10.254Z,42.54
2022-08-24T20:54:39.690Z,42.20
2022-08-24T20:57:08.933Z,41.73
2022-08-24T20:59:35.431Z,42.89
2022-08-24T21:02:03.007Z,43.08
2022-08-24T21:04:29.912Z,42.86
2022-08-24T21:06:57.184Z,43.56
2022-08-24T21:09:24.259Z,42.99
2022-08-24T21:11:51.073Z,42.36
2022-08-24T21:14:18.378Z,42.35
2022-08-24T21:16:45.082Z,42.32
2022-08-24T21:19:17.460Z,42.74
2022-08-24T21:21:46.645Z,43.25
2022-08-24T21:24:13.753Z,43.31
2022-08-24T21:26:40.448Z,43.59
2022-08-24T21:29:08.585Z,42.91
2022-08-24T21:31:35.804Z,43.23
2022-08-24T21:34:21.263Z,43.41
2022-08-24T21:36:49.526Z,43.34
2022-08-24T21:39:19.383Z,43.57
2022-08-24T21:41:46.420Z,43.39
2022-08-24T21:44:13.008Z,43.34
2022-08-24T21:46:40.248Z,43.62
2022-08-24T21:49:07.120Z,43.18
2022-08-24T21:51:38.683Z,43.24
2022-08-24T21:54:05.190Z,43.80
2022-08-24T21:56:32.672Z,43.94
2022-08-24T21:59:00.399Z,44.03
2022-08-24T22:01:28.844Z,44.37
2022-08-24T22:03:55.835Z,44.40
2022-08-24T22:06:22.321Z,44.50
2022-08-24T22:08:48.801Z,44.53
2022-08-24T22:11:17.324Z,44.50
2022-08-24T22:13:44.020Z,44.80
2022-08-24T22:16:11.897Z,44.99
2022-08-24T22:18:38.849Z,44.84
2022-08-24T22:21:15.253Z,44.65
2022-08-24T22:23:41.924Z,45.02
2022-08-24T22:26:09.219Z,45.29
2022-08-24T22:28:38.931Z,45.41
2022-08-24T22:31:17.959Z,46.47
2022-08-24T22:33:44.602Z,47.22
2022-08-24T22:36:12.358Z,47.30
2022-08-24T22:38:39.376Z,47.57
2022-08-24T22:41:06.707Z,47.39
2022-08-24T22:43:51.931Z,47.77
2022-08-24T22:46:19.518Z,47.29
2022-08-24T22:48:46.007Z,48.08
2022-08-24T22:51:12.981Z,47.76
2022-08-24T22:53:40.445Z,47.95
2022-08-24T22:56:21.675Z,48.10
2022-08-24T22:58:48.230Z,47.75
2022-08-24T23:01:24.935Z,48.40
2022-08-24T23:03:53.810Z,49.30
2022-08-24T23:06:20.313Z,49.79
2022-08-24T23:08:46.827Z,50.03
2022-08-24T23:11:14.875Z,49.98
2022-08-24T23:13:41.648Z,49.45
2022-08-24T23:16:12.037Z,49.55
2022-08-24T23:18:58.279Z,49.41
2022-08-24T23:21:25.248Z,49.06
2022-08-24T23:23:55.182Z,49.46
2022-08-24T23:26:21.790Z,49.65
2022-08-24T23:28:50.331Z,49.38
2022-08-24T23:31:18.680Z,49.29
2022-08-24T23:33:45.797Z,49.20
2022-08-24T23:36:18.220Z,49.38
2022-08-24T23:38:44.803Z,49.01
2022-08-24T23:41:15.359Z,48.98
2022-08-24T23:43:42.613Z,49.74
2022-08-24T23:46:11.268Z,49.68
2022-08-24T23:48:38.840Z,49.54
2022-08-24T23:51:10.914Z,49.73
2022-08-24T23:53:38.566Z,49.67
2022-08-24T23:56:13.264Z,49.87
2022-08-24T23:58:41.385Z,49.80
